Time;durP1;ratioP1;P1;durP2;ratioP2;P2;SDS_P1;SDS_P2;PMS_P1;PMS_P2;Temp;Humidity;BMP_temperature;BMP_pressure;BME280_temperature;BME280_humidity;BME280_pressure;Samples;Min_cycle;Max_cycle;Signal;HPM_P1;HPM_P2
2021/01/17 00:02:22;;;;;;;23.30;12.73;;;;;;;-9.72;79.63;100293.70;3581694;82;35645;-75
2021/01/17 00:07:23;;;;;;;21.55;12.50;;;;;;;-9.71;79.99;100298.44;3582262;82;26330;-75
2021/01/17 00:12:24;;;;;;;20.00;11.63;;;;;;;-9.90;78.53;100301.58;3582404;82;25822;-74
2021/01/17 00:17:27;;;;;;;25.03;12.73;;;;;;;-9.98;79.40;100306.83;3582742;82;25861;-75
2021/01/17 00:22:28;;;;;;;21.17;11.67;;;;;;;-10.01;79.15;100317.03;3582778;82;35323;-74
2021/01/17 00:27:29;;;;;;;21.07;11.00;;;;;;;-10.12;78.66;100310.13;3582359;82;26006;-74
2021/01/17 00:32:30;;;;;;;24.50;12.50;;;;;;;-10.11;80.06;100315.73;3582082;82;25800;-75
2021/01/17 00:37:31;;;;;;;21.05;11.40;;;;;;;-10.35;78.55;100322.02;3582200;82;25779;-74
2021/01/17 00:42:33;;;;;;;22.00;11.43;;;;;;;-10.32;81.23;100327.32;3582569;82;28213;-75
2021/01/17 00:47:34;;;;;;;21.10;12.23;;;;;;;-10.29;80.08;100339.06;3582657;82;25738;-75
2021/01/17 00:52:35;;;;;;;20.73;10.77;;;;;;;-10.31;80.20;100341.98;3582275;82;26350;-75
2021/01/17 00:57:37;;;;;;;20.67;11.77;;;;;;;-10.41;80.96;100346.75;3582625;82;25816;-73
2021/01/17 01:02:40;;;;;;;20.43;11.33;;;;;;;-10.50;80.58;100345.05;3582776;82;25752;-74
2021/01/17 01:07:44;;;;;;;17.93;10.70;;;;;;;-10.42;82.46;100362.16;3582642;82;34785;-70
2021/01/17 01:12:51;;;;;;;19.53;11.70;;;;;;;-10.45;83.58;100353.89;3582573;82;26306;-74
2021/01/17 01:17:52;;;;;;;19.90;10.93;;;;;;;-10.36;82.37;100366.26;3582299;82;34803;-76
2021/01/17 01:22:53;;;;;;;22.90;12.63;;;;;;;-10.44;81.94;100358.23;3582882;82;25985;-75
2021/01/17 01:27:54;;;;;;;20.17;10.43;;;;;;;-10.48;81.59;100357.61;3582703;82;25753;-75
2021/01/17 01:32:55;;;;;;;22.80;11.80;;;;;;;-10.63;80.15;100372.37;3582815;82;25954;-75
2021/01/17 01:37:57;;;;;;;19.53;10.97;;;;;;;-10.71;80.01;100381.48;3583201;82;25750;-75
2021/01/17 01:42:58;;;;;;;18.63;11.07;;;;;;;-10.83;82.22;100387.81;3582348;82;25831;-75
2021/01/17 01:47:59;;;;;;;21.93;11.00;;;;;;;-10.76;81.47;100393.72;3583030;82;26309;-74
2021/01/17 01:53:00;;;;;;;21.20;11.37;;;;;;;-10.70;81.64;100398.67;3582798;82;25761;-75
2021/01/17 01:58:08;;;;;;;22.53;11.40;;;;;;;-10.80;81.83;100402.13;3582800;82;32594;-76
2021/01/17 02:03:09;;;;;;;20.17;12.17;;;;;;;-10.82;82.61;100405.45;3582591;82;33485;-75
2021/01/17 02:08:41;;;;;;;20.97;11.80;;;;;;;-10.77;82.08;100414.27;3582545;82;25824;-75
2021/01/17 02:13:46;;;;;;;26.20;14.00;;;;;;;-10.81;82.47;100419.69;3582322;82;29428;-75
2021/01/17 02:18:50;;;;;;;20.68;11.70;;;;;;;-10.89;82.69;100429.61;3582511;82;25773;-76
2021/01/17 02:23:58;;;;;;;25.77;12.63;;;;;;;;;;3582298;82;30224;-76
2021/01/17 02:29:00;;;;;;;22.33;12.90;;;;;;;-10.93;81.45;100443.58;3582149;82;32047;-76
2021/01/17 02:34:04;;;;;;;24.67;13.93;;;;;;;-11.00;82.06;100449.25;3584795;82;34076;-76
2021/01/17 02:39:31;;;;;;;21.73;13.07;;;;;;;-11.18;80.23;100452.69;3584530;82;33652;-76
2021/01/17 02:44:34;;;;;;;25.23;12.00;;;;;;;-11.15;81.18;100444.23;3582502;82;29123;-76
2021/01/17 02:49:35;;;;;;;18.67;11.77;;;;;;;-11.29;79.92;100442.29;3583040;82;34595;-76
2021/01/17 02:54:39;;;;;;;18.83;11.30;;;;;;;-11.45;82.59;100446.68;3582548;82;25812;-75
2021/01/17 03:00:07;;;;;;;20.52;10.35;;;;;;;-11.45;82.59;100446.68;3582673;82;25834;-75
2021/01/17 03:05:14;;;;;;;23.47;12.27;;;;;;;-11.29;81.63;100448.31;3582199;82;31553;-74
2021/01/17 03:10:15;;;;;;;17.43;10.17;;;;;;;-11.24;80.47;100462.27;3582712;82;33514;-74
2021/01/17 03:15:17;;;;;;;20.30;11.10;;;;;;;-11.32;79.51;100467.86;3557635;82;27176;-75
2021/01/17 03:20:18;;;;;;;17.30;11.90;;;;;;;-11.43;80.69;100475.95;3530012;84;32646;-75
2021/01/17 03:25:19;;;;;;;25.40;12.03;;;;;;;-11.46;82.24;100482.22;3530380;83;25786;-75
2021/01/17 03:30:21;;;;;;;26.93;13.63;;;;;;;-11.42;82.13;100476.44;3530111;83;25741;-74
2021/01/17 03:35:23;;;;;;;21.73;12.03;;;;;;;-11.47;80.94;100472.73;3530647;83;26087;-75
2021/01/17 03:40:26;;;;;;;23.97;13.83;;;;;;;-11.57;80.43;100474.37;3530147;83;33534;-61
2021/01/17 03:45:27;;;;;;;21.87;12.23;;;;;;;-11.60;80.82;100483.20;3529823;84;31102;-75
2021/01/17 03:50:28;;;;;;;26.10;14.87;;;;;;;-11.61;82.36;100478.87;3529898;84;25828;-75
2021/01/17 03:55:29;;;;;;;21.20;12.60;;;;;;;-11.56;82.81;100492.45;3529902;84;25797;-76
2021/01/17 04:00:31;;;;;;;18.70;10.70;;;;;;;-11.71;82.06;100488.70;3530129;83;25778;-75
2021/01/17 04:05:32;;;;;;;20.10;11.07;;;;;;;-11.82;81.30;100496.67;3529702;84;25799;-76
2021/01/17 04:10:33;;;;;;;20.83;11.13;;;;;;;-11.86;82.51;100510.64;3529973;83;25780;-76
2021/01/17 04:15:34;;;;;;;21.90;12.13;;;;;;;-11.85;81.56;100517.97;3553295;82;26198;-76
2021/01/17 04:20:37;;;;;;;23.50;12.70;;;;;;;-11.90;82.90;100520.30;3532539;82;38773;-72
2021/01/17 04:25:38;;;;;;;28.53;14.73;;;;;;;-11.88;81.23;100518.70;3539802;83;29169;-77
2021/01/17 04:30:39;;;;;;;24.70;13.53;;;;;;;-11.89;82.27;100536.59;3539415;83;25776;-75
2021/01/17 04:35:41;;;;;;;21.73;13.90;;;;;;;-11.80;80.62;100538.79;3540435;83;26009;-77
2021/01/17 04:40:42;;;;;;;22.25;12.60;;;;;;;-11.90;82.42;100542.16;3540811;83;26017;-75
2021/01/17 04:45:43;;;;;;;24.73;13.37;;;;;;;-11.83;81.17;100543.34;3540823;83;25842;-75
2021/01/17 04:50:47;;;;;;;23.32;12.50;;;;;;;-12.05;83.75;100537.09;3540631;83;25866;-75
2021/01/17 04:55:49;;;;;;;28.10;13.33;;;;;;;-12.00;82.28;100545.48;3540624;82;29280;-75
2021/01/17 05:00:58;;;;;;;25.30;14.13;;;;;;;-12.04;82.62;100545.71;3540488;83;32155;-75
2021/01/17 05:06:25;;;;;;;24.40;13.83;;;;;;;-12.05;83.54;100543.94;3540455;83;30746;-75
2021/01/17 05:11:39;;;;;;;25.33;12.53;;;;;;;-12.10;84.97;100546.26;3540582;83;34029;-74
2021/01/17 05:16:44;;;;;;;23.83;12.17;;;;;;;-12.09;82.57;100546.75;3540860;83;35218;-75
2021/01/17 05:21:51;;;;;;;24.15;13.32;;;;;;;-12.22;82.60;100554.59;3540267;82;25801;-75
2021/01/17 05:26:58;;;;;;;25.57;13.00;;;;;;;-12.14;81.81;100563.62;3540849;83;32123;-75
2021/01/17 05:32:02;;;;;;;24.40;14.10;;;;;;;-12.18;81.43;100564.23;3540694;83;34467;-76
2021/01/17 05:37:13;;;;;;;23.25;12.03;;;;;;;-12.17;84.07;100571.14;3540982;82;26154;-75
2021/01/17 05:42:14;;;;;;;23.57;13.33;;;;;;;-12.11;81.77;100583.04;3540728;83;29039;-70
2021/01/17 05:47:22;;;;;;;24.23;14.07;;;;;;;-12.00;80.70;100595.60;3540813;83;25751;-75
2021/01/17 05:52:23;;;;;;;23.17;13.27;;;;;;;-12.03;82.76;100593.76;3540818;83;34539;-75
2021/01/17 05:57:25;;;;;;;26.67;14.50;;;;;;;-12.03;82.80;100593.34;3540471;83;26283;-74
2021/01/17 06:02:28;;;;;;;23.20;13.57;;;;;;;-12.02;80.81;100597.69;3540329;83;30156;-75
2021/01/17 06:07:34;;;;;;;23.40;13.23;;;;;;;-12.21;83.08;100600.94;3540552;83;32999;-75
2021/01/17 06:12:39;;;;;;;24.20;13.20;;;;;;;-12.18;84.11;100598.93;3540697;83;31133;-74
2021/01/17 06:17:46;;;;;;;23.97;13.27;;;;;;;-12.21;83.77;100611.62;3514460;83;27616;-69
2021/01/17 06:22:58;;;;;;;24.57;13.83;;;;;;;-12.04;82.37;100618.56;3504136;84;30134;-74
2021/01/17 06:28:14;;;;;;;25.40;13.87;;;;;;;-12.09;81.93;100620.42;3504991;84;33102;-75
2021/01/17 06:33:22;;;;;;;29.73;15.60;;;;;;;-12.07;82.22;100629.98;3505169;84;29191;-75
2021/01/17 06:38:23;;;;;;;32.13;14.50;;;;;;;-12.14;84.52;100640.72;3505194;84;31648;-74
2021/01/17 06:43:27;;;;;;;28.53;12.60;;;;;;;-12.10;82.30;100650.36;3505140;84;25808;-73
2021/01/17 06:48:28;;;;;;;29.67;14.20;;;;;;;-12.11;82.74;100657.58;3486671;84;28223;-75
2021/01/17 06:53:29;;;;;;;27.00;14.17;;;;;;;-12.12;83.45;100658.80;3505208;84;25760;-70
2021/01/17 06:58:31;;;;;;;27.43;14.67;;;;;;;-12.07;82.93;100667.25;3505347;84;25823;-75
2021/01/17 07:03:43;;;;;;;29.50;15.03;;;;;;;-12.09;83.36;100673.98;3505064;84;26235;-75
2021/01/17 07:08:52;;;;;;;27.43;16.73;;;;;;;-12.00;82.77;100678.74;3503771;83;27165;-75
2021/01/17 07:13:58;;;;;;;30.33;16.30;;;;;;;-12.14;82.52;100676.71;3503769;84;30600;-71
2021/01/17 07:19:06;;;;;;;32.27;16.87;;;;;;;-12.07;81.42;100681.39;3558936;83;32163;-70
2021/01/17 07:24:09;;;;;;;30.20;14.73;;;;;;;-11.99;82.63;100687.36;3563057;83;34491;-75
2021/01/17 07:29:17;;;;;;;29.70;14.97;;;;;;;-11.97;81.77;100693.07;3563007;83;30081;-74
2021/01/17 07:34:21;;;;;;;28.93;14.83;;;;;;;-12.09;82.69;100698.41;3565846;83;31075;-74
2021/01/17 07:39:24;;;;;;;25.90;14.93;;;;;;;-11.85;81.61;100705.69;3564948;83;26010;-75
2021/01/17 07:44:31;;;;;;;30.10;17.50;;;;;;;-11.94;81.52;100716.74;3562925;83;35517;-76
2021/01/17 07:49:34;;;;;;;25.90;14.30;;;;;;;-11.93;82.06;100714.66;3562911;83;30121;-75
2021/01/17 07:54:38;;;;;;;30.70;15.00;;;;;;;-11.94;82.17;100724.45;3563226;83;35017;-75
2021/01/17 07:59:40;;;;;;;30.10;15.50;;;;;;;-11.79;81.83;100725.31;3563728;83;30107;-74
2021/01/17 08:04:47;;;;;;;24.07;15.23;;;;;;;-11.86;82.19;100718.06;3562742;83;28980;-73
2021/01/17 08:09:49;;;;;;;30.57;16.00;;;;;;;-11.78;82.10;100726.19;3562659;83;30095;-75
2021/01/17 08:14:56;;;;;;;27.80;14.37;;;;;;;-11.74;81.35;100718.73;3562852;83;32125;-73
2021/01/17 08:20:00;;;;;;;23.87;13.57;;;;;;;-11.84;82.23;100721.61;3536436;82;30219;-70
2021/01/17 08:25:06;;;;;;;17.83;10.57;;;;;;;-11.86;84.53;100726.64;3540659;82;25852;-74
2021/01/17 08:30:18;;;;;;;25.33;14.23;;;;;;;-11.67;81.42;100735.78;3541215;83;31020;-74
2021/01/17 08:35:24;;;;;;;27.53;14.50;;;;;;;-11.52;81.35;100753.34;3540430;83;28269;-70
2021/01/17 08:40:34;;;;;;;24.27;13.33;;;;;;;-11.49;80.74;100749.67;3540955;83;31368;-76
2021/01/17 08:45:41;;;;;;;25.87;14.47;;;;;;;-11.58;80.69;100760.73;3554469;82;32110;-74
2021/01/17 08:50:51;;;;;;;31.47;16.33;;;;;;;-11.36;79.90;100758.92;3560266;82;30256;-75
2021/01/17 08:56:01;;;;;;;30.77;17.97;;;;;;;-11.32;80.22;100771.55;3540453;82;32518;-74
2021/01/17 09:01:07;;;;;;;33.67;16.93;;;;;;;-11.33;81.60;100780.98;3539342;82;32631;-76
2021/01/17 09:06:20;;;;;;;29.63;17.33;;;;;;;-11.28;78.95;100795.39;3539249;82;32082;-76
2021/01/17 09:11:37;;;;;;;31.40;16.90;;;;;;;-11.26;79.99;100813.07;3578144;82;29283;-75
2021/01/17 09:17:00;;;;;;;24.40;14.23;;;;;;;-11.18;79.56;100821.23;3532365;82;28582;-76
2021/01/17 09:22:06;;;;;;;24.77;14.30;;;;;;;-11.18;80.37;100817.38;3516962;83;28223;-76
2021/01/17 09:27:09;;;;;;;24.57;15.17;;;;;;;-11.16;79.93;100819.22;3521611;83;29683;-74
2021/01/17 09:32:15;;;;;;;30.30;15.57;;;;;;;-11.08;79.37;100826.06;3522431;83;31632;-73
2021/01/17 09:37:18;;;;;;;28.45;15.65;;;;;;;-11.30;78.23;100839.45;3536293;83;26231;-75
2021/01/17 09:42:24;;;;;;;28.50;16.53;;;;;;;-11.23;79.29;100846.72;3542435;83;32628;-75
2021/01/17 09:47:28;;;;;;;27.85;16.37;;;;;;;-11.20;79.24;100849.44;3537143;82;33780;-62
2021/01/17 09:52:29;;;;;;;28.62;15.75;;;;;;;-11.37;78.74;100849.42;3471653;85;25773;-75
2021/01/17 09:57:30;;;;;;;28.73;16.13;;;;;;;-11.26;78.55;100862.88;3471582;85;25885;-71
2021/01/17 10:02:33;;;;;;;28.77;16.67;;;;;;;-11.23;78.83;100857.89;3468779;85;26169;-76
2021/01/17 10:07:34;;;;;;;31.47;16.97;;;;;;;-11.24;78.26;100856.11;3471842;85;28156;-73
2021/01/17 10:12:36;;;;;;;27.00;16.67;;;;;;;-11.34;77.69;100862.85;3471784;85;26359;-74
2021/01/17 10:17:48;;;;;;;31.03;17.00;;;;;;;-11.45;76.78;100869.97;3471939;84;33290;-74
2021/01/17 10:23:07;;;;;;;28.87;16.53;;;;;;;-11.38;77.72;100863.08;3471950;85;29188;-75
2021/01/17 10:28:10;;;;;;;33.60;17.70;;;;;;;-11.32;77.69;100877.09;3466313;85;31627;-75
2021/01/17 10:33:14;;;;;;;30.07;17.17;;;;;;;-11.34;75.73;100891.55;3472092;85;33566;-74
2021/01/17 10:38:16;;;;;;;34.83;17.70;;;;;;;-11.47;75.97;100896.00;3457560;83;29279;-74
2021/01/17 10:43:36;;;;;;;29.80;17.60;;;;;;;-11.48;76.15;100895.93;3457920;85;29763;-74
2021/01/17 10:48:54;;;;;;;27.33;16.70;;;;;;;-11.49;76.95;100895.05;3465484;85;31139;-75
2021/01/17 10:53:59;;;;;;;37.10;20.80;;;;;;;-11.61;75.56;100897.81;3462386;85;32122;-75
2021/01/17 10:59:05;;;;;;;29.47;16.47;;;;;;;-11.16;75.80;100905.47;3455719;85;26078;-73
2021/01/17 11:04:06;;;;;;;33.73;19.00;;;;;;;-10.71;74.30;100908.32;3453491;85;33575;-73
2021/01/17 11:09:13;;;;;;;34.53;19.23;;;;;;;-10.59;71.62;100912.84;3471728;85;26336;-73
2021/01/17 11:14:15;;;;;;;34.07;19.00;;;;;;;-10.33;72.12;100910.72;3471844;85;35532;-74
2021/01/17 11:19:17;;;;;;;34.37;18.53;;;;;;;-10.22;71.78;100908.32;3439925;85;25928;-73
2021/01/17 11:24:18;;;;;;;34.33;19.07;;;;;;;-9.72;70.57;100912.09;3438412;85;33530;-73
2021/01/17 11:29:19;;;;;;;36.13;21.10;;;;;;;-7.32;62.12;100910.85;3519662;84;25722;-75
2021/01/17 11:34:20;;;;;;;34.30;21.10;;;;;;;-7.79;61.70;100905.88;3518841;80;25920;-68
2021/01/17 11:39:24;;;;;;;32.73;22.63;;;;;;;-5.25;54.03;100893.23;3486733;84;26306;-75
2021/01/17 11:44:32;;;;;;;30.37;20.37;;;;;;;-3.64;48.35;100889.67;3471812;84;35373;-75
2021/01/17 11:49:34;;;;;;;33.80;22.50;;;;;;;-4.54;47.07;100886.31;3529394;84;34873;-75
2021/01/17 11:54:35;;;;;;;28.07;21.07;;;;;;;-4.02;46.96;100887.78;3529529;84;35330;-75
2021/01/17 11:59:37;;;;;;;36.07;25.73;;;;;;;-4.13;46.25;100887.05;3511221;84;30651;-74
2021/01/17 12:04:40;;;;;;;28.93;22.63;;;;;;;-4.32;46.45;100892.62;3512973;84;34946;-76
2021/01/17 12:09:41;;;;;;;30.57;21.73;;;;;;;-8.60;56.37;100898.92;3511102;84;35147;-76
2021/01/17 12:14:44;;;;;;;33.60;23.63;;;;;;;-9.50;60.89;100905.03;3517928;84;26285;-75
2021/01/17 12:19:45;;;;;;;40.17;24.27;;;;;;;-9.81;63.40;100912.14;3511579;83;34909;-68
2021/01/17 12:24:46;;;;;;;39.83;24.97;;;;;;;-10.00;65.10;100913.27;3490852;83;26236;-74
2021/01/17 12:29:50;;;;;;;33.90;21.63;;;;;;;-10.02;64.81;100910.63;3525763;83;26385;-74
2021/01/17 12:34:52;;;;;;;32.60;19.57;;;;;;;-10.44;65.34;100911.47;3527737;83;34970;-74
2021/01/17 12:39:53;;;;;;;33.43;19.13;;;;;;;-10.40;66.11;100913.42;3548525;83;25711;-75
2021/01/17 12:44:55;;;;;;;34.23;20.43;;;;;;;-10.39;66.02;100919.45;3547426;83;33132;-75
2021/01/17 12:49:56;;;;;;;32.13;18.20;;;;;;;-10.91;66.49;100920.59;3548114;83;25857;-74
2021/01/17 12:54:57;;;;;;;35.03;19.10;;;;;;;-11.26;68.38;100920.80;3541843;83;25792;-74
2021/01/17 12:59:58;;;;;;;31.47;17.27;;;;;;;-10.64;68.04;100914.30;3548712;83;26239;-74
2021/01/17 13:05:00;;;;;;;32.37;17.80;;;;;;;-10.66;69.44;100916.77;3530236;83;25745;-74
2021/01/17 13:10:01;;;;;;;32.23;18.73;;;;;;;-10.77;68.60;100924.32;3535757;83;25895;-75
2021/01/17 13:15:03;;;;;;;33.17;18.57;;;;;;;-10.96;69.06;100926.28;3535358;83;25828;-75
2021/01/17 13:20:06;;;;;;;29.20;18.43;;;;;;;-11.01;70.88;100931.17;3548881;83;25994;-76
2021/01/17 13:25:09;;;;;;;27.37;16.80;;;;;;;-11.14;70.91;100941.20;3565452;83;34435;-76
2021/01/17 13:30:11;;;;;;;30.73;16.97;;;;;;;-11.62;71.06;100953.01;3562240;83;33627;-76
2021/01/17 13:35:13;;;;;;;32.90;17.57;;;;;;;-11.71;71.67;100955.94;3551336;83;33448;-76
2021/01/17 13:40:15;;;;;;;28.73;16.73;;;;;;;-11.45;73.18;100956.17;3550344;83;33000;-77
2021/01/17 13:45:17;;;;;;;27.97;17.37;;;;;;;-11.72;73.70;100957.63;3562235;83;33156;-77
2021/01/17 13:50:18;;;;;;;25.73;15.50;;;;;;;-11.33;73.84;100966.67;3562547;83;25752;-76
2021/01/17 13:55:19;;;;;;;35.83;18.53;;;;;;;-11.69;74.03;100968.09;3568219;83;25943;-75
2021/01/17 14:00:24;;;;;;;32.67;18.40;;;;;;;-11.37;73.26;100954.94;3562410;83;25825;-77
2021/01/17 14:05:25;;;;;;;34.80;21.30;;;;;;;-11.25;71.10;100962.86;3551124;83;25883;-76
2021/01/17 14:10:27;;;;;;;35.93;21.60;;;;;;;-11.03;70.44;100955.06;3561946;83;25883;-75
2021/01/17 14:15:29;;;;;;;32.77;18.17;;;;;;;-11.04;70.26;100943.89;3562274;83;29266;-75
2021/01/17 14:20:30;;;;;;;30.10;18.23;;;;;;;-10.83;69.21;100956.19;3562151;83;33055;-69
2021/01/17 14:25:31;;;;;;;35.53;20.27;;;;;;;-10.88;68.49;100948.20;3562338;83;26010;-68
2021/01/17 14:30:32;;;;;;;37.43;20.93;;;;;;;-11.38;70.76;100955.73;3562841;83;26049;-68
2021/01/17 14:35:34;;;;;;;39.60;19.13;;;;;;;-11.99;74.18;100947.91;3561903;83;25853;-75
2021/01/17 14:40:35;;;;;;;38.23;20.40;;;;;;;-11.86;73.42;100970.08;3557237;83;25973;-74
2021/01/17 14:45:36;;;;;;;39.07;21.50;;;;;;;-12.13;75.11;100975.75;3564507;83;25889;-75
2021/01/17 14:50:37;;;;;;;37.80;22.07;;;;;;;-12.07;74.61;100973.17;3568866;83;25949;-74
2021/01/17 14:55:39;;;;;;;43.00;23.43;;;;;;;-12.03;75.41;100985.40;3552010;83;26313;-75
2021/01/17 15:00:40;;;;;;;39.47;22.53;;;;;;;-11.92;75.55;100986.42;3561531;83;25800;-74
2021/01/17 15:05:41;;;;;;;44.67;23.17;;;;;;;-11.86;75.80;100989.36;3562549;83;25758;-75
2021/01/17 15:10:42;;;;;;;45.80;24.40;;;;;;;-11.96;75.83;100987.05;3551650;83;25850;-68
2021/01/17 15:15:47;;;;;;;40.00;23.20;;;;;;;-12.02;76.45;101004.30;3563996;83;25866;-74
2021/01/17 15:20:48;;;;;;;40.73;22.13;;;;;;;-12.12;75.93;101001.55;3568403;83;27649;-77
2021/01/17 15:25:49;;;;;;;49.80;24.10;;;;;;;-12.14;76.76;100998.39;3559241;83;25871;-75
2021/01/17 15:30:51;;;;;;;52.10;26.97;;;;;;;-12.14;76.87;100997.11;3565270;83;26099;-74
2021/01/17 15:35:53;;;;;;;46.67;25.63;;;;;;;-12.21;76.57;100994.16;3566199;83;31232;-69
2021/01/17 15:40:54;;;;;;;53.30;26.87;;;;;;;-12.27;76.63;100991.22;3561390;83;28218;-70
2021/01/17 15:45:55;;;;;;;56.03;30.00;;;;;;;-12.23;77.08;101003.86;3562114;80;49132;-74
2021/01/17 15:50:56;;;;;;;53.80;28.43;;;;;;;-12.27;76.77;100998.05;3565149;82;26227;-74
2021/01/17 15:55:58;;;;;;;58.10;27.80;;;;;;;-12.28;76.92;101003.58;3566964;82;25905;-74
2021/01/17 16:00:59;;;;;;;63.60;30.73;;;;;;;-12.46;78.00;101018.73;3554975;82;26284;-75
2021/01/17 16:06:03;;;;;;;51.43;28.33;;;;;;;-12.54;76.56;101030.20;3569031;82;25817;-75
2021/01/17 16:11:04;;;;;;;53.87;29.00;;;;;;;-12.54;76.10;101023.41;3563303;82;26421;-74
2021/01/17 16:16:07;;;;;;;56.37;27.67;;;;;;;-12.58;76.00;101019.25;3567493;82;26293;-70
2021/01/17 16:21:09;;;;;;;53.87;28.47;;;;;;;-12.62;76.55;101022.02;3552204;83;31145;-74
2021/01/17 16:26:11;;;;;;;52.73;27.20;;;;;;;-12.67;76.20;101018.28;3541278;83;31091;-75
2021/01/17 16:31:13;;;;;;;50.47;26.73;;;;;;;-12.81;76.34;101022.52;3536682;83;30141;-74
2021/01/17 16:36:19;;;;;;;49.03;27.07;;;;;;;-12.85;76.95;101026.57;3551375;83;26384;-75
2021/01/17 16:41:20;;;;;;;52.40;27.83;;;;;;;-12.93;78.39;101030.31;3530742;83;31201;-75
2021/01/17 16:46:29;;;;;;;60.47;30.07;;;;;;;-12.88;75.57;101039.23;3541968;83;25961;-74
2021/01/17 16:51:37;;;;;;;64.43;35.90;;;;;;;-12.87;76.82;101038.45;3546368;83;26333;-70
2021/01/17 16:56:39;;;;;;;58.33;29.87;;;;;;;-12.90;76.55;101042.49;3522128;83;28617;-75
2021/01/17 17:01:43;;;;;;;59.80;30.90;;;;;;;-12.98;76.69;101050.59;3548134;83;27769;-74
2021/01/17 17:06:44;;;;;;;65.33;33.57;;;;;;;-13.00;76.20;101056.38;3548200;83;30193;-74
2021/01/17 17:11:45;;;;;;;69.90;34.93;;;;;;;-13.09;77.82;101050.25;3529531;83;25756;-70
2021/01/17 17:16:47;;;;;;;77.20;36.30;;;;;;;-13.05;77.32;101056.11;3496145;83;44227;-76
2021/01/17 17:21:49;;;;;;;62.90;32.57;;;;;;;-13.08;76.88;101052.45;3493394;83;34818;-75
2021/01/17 17:26:50;;;;;;;64.03;31.67;;;;;;;-13.15;76.58;101058.84;3475934;84;25806;-76
2021/01/17 17:31:53;;;;;;;55.47;30.03;;;;;;;-13.30;77.04;101058.72;3475807;85;26211;-75
2021/01/17 17:37:03;;;;;;;65.53;31.63;;;;;;;-13.33;77.47;101054.28;3475797;84;31624;-75
2021/01/17 17:42:04;;;;;;;61.27;32.67;;;;;;;-13.70;76.81;101051.83;3475557;85;32088;-75
2021/01/17 17:47:06;;;;;;;68.03;33.30;;;;;;;-14.19;81.65;101058.69;3475425;85;31650;-76
2021/01/17 17:52:07;;;;;;;75.77;34.37;;;;;;;-14.58;82.77;101058.13;3475360;84;25851;-70
2021/01/17 17:57:08;;;;;;;68.83;33.77;;;;;;;-14.53;84.37;101058.88;3475208;85;25814;-74
2021/01/17 18:02:10;;;;;;;73.83;36.27;;;;;;;-14.52;82.65;101061.53;3475376;85;25758;-75
2021/01/17 18:07:11;;;;;;;65.90;34.43;;;;;;;-14.40;80.44;101066.64;3475139;85;27245;-75
2021/01/17 18:12:13;;;;;;;69.60;35.37;;;;;;;-14.51;82.21;101065.88;3475027;85;25794;-75
2021/01/17 18:17:14;;;;;;;67.83;35.03;;;;;;;-14.64;83.09;101062.81;3475585;84;27318;-75
2021/01/17 18:22:16;;;;;;;73.33;37.83;;;;;;;-14.66;85.94;101059.31;3525693;82;26268;-76
2021/01/17 18:27:17;;;;;;;75.90;38.93;;;;;;;-14.69;85.26;101071.88;3530803;82;25805;-73
2021/01/17 18:32:18;;;;;;;78.73;39.30;;;;;;;-14.65;84.00;101081.95;3513618;82;41047;-75
2021/01/17 18:37:21;;;;;;;96.67;46.27;;;;;;;-14.91;85.02;101084.39;3517579;84;25867;-74
2021/01/17 18:42:22;;;;;;;104.87;48.63;;;;;;;-14.74;84.89;101086.02;3517656;83;26313;-71
2021/01/17 18:47:25;;;;;;;94.70;46.23;;;;;;;-14.65;83.63;101100.72;3518256;84;25788;-75
2021/01/17 18:52:36;;;;;;;104.00;47.90;;;;;;;-14.88;83.93;101110.59;3517773;84;25849;-76
2021/01/17 18:57:38;;;;;;;99.90;45.53;;;;;;;-14.87;84.26;101107.66;3517694;84;32558;-77
2021/01/17 19:02:39;;;;;;;81.13;41.10;;;;;;;-14.78;83.67;101105.39;3505641;84;26085;-76
2021/01/17 19:07:43;;;;;;;81.87;41.37;;;;;;;-14.82;82.26;101101.20;3517745;84;25883;-76
2021/01/17 19:12:44;;;;;;;82.60;39.70;;;;;;;-14.95;80.66;101101.59;3511530;82;27633;-75
2021/01/17 19:17:50;;;;;;;80.80;39.07;;;;;;;-15.06;80.32;101107.56;3512415;84;26055;-75
2021/01/17 19:22:51;;;;;;;79.93;40.30;;;;;;;-15.27;80.17;101111.58;3524852;84;26034;-79
2021/01/17 19:27:55;;;;;;;91.17;43.40;;;;;;;-15.52;81.88;101072.16;3527893;82;26523;-76
2021/01/17 19:33:01;;;;;;;84.87;43.73;;;;;;;-15.33;83.66;101105.14;3519633;80;26310;-76
2021/01/17 19:38:04;;;;;;;91.60;45.53;;;;;;;-15.22;82.96;101117.05;3519674;82;36259;-75
2021/01/17 19:43:05;;;;;;;116.33;50.50;;;;;;;-15.17;83.37;101125.07;3552421;82;26740;-76
2021/01/17 19:48:07;;;;;;;123.10;53.73;;;;;;;-15.31;83.89;101121.09;3554346;82;25812;-77
2021/01/17 19:53:08;;;;;;;124.10;55.13;;;;;;;-15.42;84.20;101120.28;3554036;82;26746;-71
2021/01/17 19:58:10;;;;;;;122.73;53.90;;;;;;;-15.20;83.55;101124.45;3547652;82;25829;-76
2021/01/17 20:03:11;;;;;;;112.17;52.33;;;;;;;-15.15;81.78;101125.69;3557548;82;25827;-76
2021/01/17 20:08:12;;;;;;;114.43;49.83;;;;;;;-15.27;83.34;101114.14;3548831;82;26148;-60
2021/01/17 20:13:13;;;;;;;118.70;54.77;;;;;;;-15.22;85.41;101123.04;3546258;82;25908;-76
2021/01/17 20:18:15;;;;;;;117.70;56.47;;;;;;;-15.31;83.72;101124.02;3549994;82;26248;-68
2021/01/17 20:23:19;;;;;;;110.83;52.53;;;;;;;-15.27;82.52;101128.61;3538803;83;26854;-75
2021/01/17 20:28:21;;;;;;;105.75;52.83;;;;;;;-15.61;83.46;101133.31;3540889;82;26348;-75
2021/01/17 20:33:24;;;;;;;115.20;54.97;;;;;;;-15.40;83.25;101130.61;3540571;83;27637;-69
2021/01/17 20:38:25;;;;;;;117.77;58.17;;;;;;;-15.41;82.41;101130.11;3538739;82;25799;-69
2021/01/17 20:43:28;;;;;;;112.87;54.97;;;;;;;-15.45;83.06;101128.10;3532339;83;25758;-72
2021/01/17 20:48:29;;;;;;;118.17;53.83;;;;;;;-15.51;82.27;101128.52;3529213;82;27620;-76
2021/01/17 20:53:31;;;;;;;113.23;55.23;;;;;;;-15.67;83.46;101123.91;3535180;82;26032;-76
2021/01/17 20:58:36;;;;;;;116.07;56.73;;;;;;;-15.55;83.49;101112.05;3543535;82;25957;-76
2021/01/17 21:03:38;;;;;;;116.93;58.67;;;;;;;-15.53;82.66;101121.52;3534588;82;26577;-75
2021/01/17 21:08:40;;;;;;;121.93;62.30;;;;;;;-15.59;83.33;101113.89;3530073;83;27825;-74
2021/01/17 21:13:42;;;;;;;136.40;64.27;;;;;;;-15.74;82.74;101116.53;3536732;83;26566;-75
2021/01/17 21:18:44;;;;;;;134.10;64.90;;;;;;;-15.73;82.49;101147.72;3542651;83;26986;-73
2021/01/17 21:23:46;;;;;;;139.70;61.00;;;;;;;-15.81;82.37;101133.45;3535997;82;27764;-74
2021/01/17 21:28:48;;;;;;;124.43;59.27;;;;;;;-15.68;82.94;101127.63;3530562;82;26787;-74
2021/01/17 21:33:49;;;;;;;137.80;62.97;;;;;;;-16.01;82.96;101130.27;3529665;83;26383;-75
2021/01/17 21:38:52;;;;;;;137.37;64.93;;;;;;;-16.05;84.32;101141.00;3529481;83;26073;-75
2021/01/17 21:43:53;;;;;;;147.40;70.50;;;;;;;-16.04;83.31;101136.41;3532879;82;35098;-75
2021/01/17 21:48:54;;;;;;;154.23;71.80;;;;;;;-15.92;83.63;101140.31;3530189;82;25772;-76
2021/01/17 21:53:57;;;;;;;160.07;74.60;;;;;;;-15.96;82.63;101137.02;3530888;84;26246;-75
2021/01/17 21:58:58;;;;;;;147.63;71.40;;;;;;;-16.07;83.84;101137.45;3529794;84;25910;-74
2021/01/17 22:04:00;;;;;;;154.43;72.50;;;;;;;-16.12;84.06;101136.18;3530914;82;25724;-76
2021/01/17 22:09:02;;;;;;;157.60;67.80;;;;;;;-16.25;83.24;101143.28;3530703;84;25825;-77
2021/01/17 22:14:03;;;;;;;166.30;75.67;;;;;;;-16.25;83.24;101143.28;3512160;83;30606;-75
2021/01/17 22:19:04;;;;;;;174.13;74.20;;;;;;;-16.32;84.41;101146.11;3482761;84;26367;-76
2021/01/17 22:24:07;;;;;;;150.97;72.50;;;;;;;-16.39;83.70;101149.45;3484769;83;25929;-76
2021/01/17 22:29:08;;;;;;;168.30;79.17;;;;;;;-16.32;84.08;101152.09;3484298;84;28168;-69
2021/01/17 22:34:11;;;;;;;201.30;89.47;;;;;;;-16.27;85.29;101158.45;3484839;85;27732;-76
2021/01/17 22:39:13;;;;;;;147.80;72.37;;;;;;;-16.47;84.06;101160.71;3484981;85;25894;-75
2021/01/17 22:44:14;;;;;;;162.30;73.03;;;;;;;-16.55;85.71;101156.24;3484771;84;27222;-76